Time;durP1;ratioP1;P1;durP2;ratioP2;P2;SDS_P1;SDS_P2;PMS_P1;PMS_P2;Temp;Humidity;BMP_temperature;BMP_pressure;BME280_temperature;BME280_humidity;BME280_pressure;Samples;Min_cycle;Max_cycle;Signal;HPM_P1;HPM_P2
2022/06/06 00:02:07;;;;;;;3.38;0.50;;;;;;;14.97;69.72;100727.13;6134293;23;20013;-76
2022/06/06 00:04:34;;;;;;;1.65;0.52;;;;;;;14.94;69.71;100725.78;6134072;23;20435;-76
2022/06/06 00:07:00;;;;;;;1.40;0.50;;;;;;;14.91;69.88;100720.00;6159678;23;20053;-76
2022/06/06 00:09:26;;;;;;;1.05;0.47;;;;;;;14.87;69.60;100719.78;6134418;23;20017;-76
2022/06/06 00:11:54;;;;;;;4.05;0.60;;;;;;;14.84;69.95;100720.44;6109794;23;20076;-76
2022/06/06 00:14:19;;;;;;;1.58;0.60;;;;;;;14.77;70.25;100716.44;6085892;23;20151;-76
2022/06/06 00:16:45;;;;;;;2.25;0.60;;;;;;;14.70;70.44;100717.69;6134094;23;20013;-76
2022/06/06 00:19:11;;;;;;;5.78;0.60;;;;;;;14.66;70.63;100718.66;6109538;23;20010;-76
2022/06/06 00:21:37;;;;;;;1.23;0.50;;;;;;;14.66;70.47;100722.28;6109502;23;20048;-76
2022/06/06 00:24:03;;;;;;;2.00;0.63;;;;;;;14.56;70.73;100713.31;6109958;23;20005;-76
2022/06/06 00:26:29;;;;;;;1.38;0.40;;;;;;;14.51;71.10;100717.00;6183404;23;20060;-76
2022/06/06 00:28:55;;;;;;;0.63;0.50;;;;;;;14.48;70.91;100712.06;6134207;23;20097;-76
2022/06/06 00:36:48;;;;;;;0.85;0.40;;;;;;;14.36;70.84;100709.81;6137946;23;20020;-76
2022/06/06 00:39:15;;;;;;;0.88;0.50;;;;;;;14.31;71.18;100712.72;6159874;23;20009;-76
2022/06/06 00:41:43;;;;;;;2.42;0.80;;;;;;;14.28;71.26;100708.59;6159787;23;20396;-76
2022/06/06 00:44:13;;;;;;;1.85;0.70;;;;;;;14.21;71.49;100707.38;6160071;23;20006;-76
2022/06/06 00:46:40;;;;;;;2.92;0.93;;;;;;;14.16;71.67;100716.69;6109340;23;20033;-76
2022/06/06 00:49:07;;;;;;;0.70;0.40;;;;;;;14.13;71.84;100711.75;6085588;23;20083;-76
2022/06/06 00:51:32;;;;;;;1.48;0.60;;;;;;;14.09;71.96;100713.50;6109780;23;20005;-75
2022/06/06 00:53:58;;;;;;;3.80;0.70;;;;;;;14.05;71.87;100704.09;6109259;23;20006;-76
2022/06/06 00:56:40;;;;;;;3.53;0.50;;;;;;;14.03;72.00;100700.78;6133306;23;20005;-76
2022/06/06 00:59:09;;;;;;;3.60;0.93;;;;;;;13.98;71.93;100698.91;6111330;23;20018;-76
2022/06/06 01:01:35;;;;;;;1.88;0.52;;;;;;;13.96;71.81;100706.81;6158305;23;20009;-75
2022/06/06 01:04:01;;;;;;;2.70;0.75;;;;;;;13.92;72.16;100699.34;6133518;23;20403;-76
2022/06/06 01:06:27;;;;;;;2.35;0.80;;;;;;;13.90;72.01;100691.31;6133379;23;20406;-76
2022/06/06 01:08:52;;;;;;;1.98;0.73;;;;;;;13.86;72.23;100685.50;6183209;23;20033;-76
2022/06/06 01:11:18;;;;;;;2.05;0.60;;;;;;;13.81;72.48;100682.81;6182707;23;20685;-76
2022/06/06 01:13:45;;;;;;;1.00;0.45;;;;;;;13.76;72.71;100676.50;6108906;23;20017;-75
2022/06/06 01:16:13;;;;;;;2.17;0.57;;;;;;;13.74;72.48;100671.25;6109169;23;20010;-76
2022/06/06 01:19:04;;;;;;;2.55;0.75;;;;;;;13.73;72.58;100668.75;6133259;23;20013;-76
2022/06/06 01:21:39;;;;;;;2.38;0.70;;;;;;;13.66;72.96;100673.94;6136949;23;20005;-76
2022/06/06 01:24:19;;;;;;;3.25;0.70;;;;;;;13.63;72.92;100670.63;6159525;23;20018;-76
2022/06/06 01:27:21;;;;;;;2.60;0.68;;;;;;;13.61;73.07;100675.69;6159494;23;20044;-76
2022/06/06 01:29:50;;;;;;;2.60;0.55;;;;;;;13.56;73.41;100675.78;6108270;23;20049;-76
2022/06/06 01:32:18;;;;;;;1.58;0.60;;;;;;;13.57;73.25;100671.88;6109805;23;20005;-76
2022/06/06 01:34:43;;;;;;;2.15;1.05;;;;;;;13.51;73.35;100667.56;6133969;23;20017;-76
2022/06/06 01:37:32;;;;;;;1.38;0.60;;;;;;;13.48;73.22;100673.72;6133320;23;20057;-76
2022/06/06 01:39:59;;;;;;;2.13;0.60;;;;;;;13.45;73.80;100663.19;6157808;23;20005;-76
2022/06/06 01:42:47;;;;;;;2.60;0.68;;;;;;;13.43;73.58;100665.47;6133370;23;20033;-76
2022/06/06 01:45:33;;;;;;;3.17;0.50;;;;;;;13.40;73.56;100666.94;6108864;23;20080;-76
2022/06/06 01:48:08;;;;;;;3.25;0.80;;;;;;;13.37;73.80;100664.75;6108921;23;20019;-76
2022/06/06 01:50:36;;;;;;;2.22;0.60;;;;;;;13.35;74.09;100667.03;6133129;23;20016;-76
2022/06/06 01:53:05;;;;;;;1.40;0.68;;;;;;;13.34;74.10;100667.31;6108828;23;20010;-76
2022/06/06 01:55:31;;;;;;;2.13;0.70;;;;;;;13.31;73.85;100657.59;6133289;23;20430;-76
2022/06/06 01:58:02;;;;;;;1.35;0.70;;;;;;;13.29;74.38;100661.81;6133169;23;20006;-76
2022/06/06 02:00:29;;;;;;;2.17;0.70;;;;;;;13.24;74.30;100665.53;6108938;23;20006;-76
2022/06/06 02:02:55;;;;;;;1.73;0.68;;;;;;;13.26;74.13;100668.88;6133210;23;20088;-76
2022/06/06 02:05:20;;;;;;;2.30;0.65;;;;;;;13.19;74.57;100666.44;6132994;23;20009;-76
2022/06/06 02:07:46;;;;;;;3.47;0.68;;;;;;;13.19;74.13;100665.63;6158549;23;20016;-76
2022/06/06 02:10:12;;;;;;;0.80;0.60;;;;;;;13.22;74.16;100670.59;6159076;23;20056;-76
2022/06/06 02:12:38;;;;;;;1.30;0.70;;;;;;;13.14;74.08;100669.31;6133310;23;20053;-76
2022/06/06 02:15:05;;;;;;;3.80;0.70;;;;;;;13.11;73.96;100660.75;6132440;23;20029;-76
2022/06/06 02:17:31;;;;;;;2.88;0.70;;;;;;;13.09;74.24;100663.88;6133228;23;20015;-76
2022/06/06 02:19:56;;;;;;;3.47;0.70;;;;;;;13.03;74.65;100659.50;6108466;23;20009;-77
2022/06/06 02:22:22;;;;;;;2.20;0.70;;;;;;;13.03;74.90;100665.06;6159211;23;20005;-76
2022/06/06 02:24:47;;;;;;;2.90;0.60;;;;;;;12.99;75.00;100661.25;6133120;23;20013;-76
2022/06/06 02:27:13;;;;;;;1.45;0.63;;;;;;;12.98;74.41;100651.22;6159133;23;20013;-76
2022/06/06 02:29:38;;;;;;;3.60;0.90;;;;;;;12.96;74.71;100656.31;6158368;23;20017;-76
2022/06/06 02:32:05;;;;;;;2.33;0.55;;;;;;;12.91;74.88;100642.44;6108420;23;20454;-76
2022/06/06 02:34:30;;;;;;;2.75;0.80;;;;;;;12.87;74.91;100655.31;6132799;23;20014;-76
2022/06/06 02:36:56;;;;;;;1.23;0.65;;;;;;;12.86;74.70;100650.91;6084425;23;20072;-76
2022/06/06 02:39:21;;;;;;;1.33;0.55;;;;;;;12.84;74.88;100654.00;6108689;23;20010;-76
2022/06/06 02:41:47;;;;;;;1.17;0.57;;;;;;;12.81;74.74;100650.97;6132851;23;20014;-76
2022/06/06 02:44:12;;;;;;;1.63;0.70;;;;;;;12.79;74.74;100656.03;6108335;23;20387;-76
2022/06/06 02:46:38;;;;;;;1.48;0.63;;;;;;;12.72;74.88;100662.81;6133095;23;20009;-76
2022/06/06 02:49:03;;;;;;;3.50;0.90;;;;;;;12.70;74.78;100659.53;6132655;23;20013;-76
2022/06/06 02:51:29;;;;;;;1.08;0.63;;;;;;;12.65;75.09;100659.63;6132626;23;20032;-76
2022/06/06 02:53:54;;;;;;;2.13;0.80;;;;;;;12.61;75.21;100649.38;6108797;23;20009;-76
2022/06/06 02:56:20;;;;;;;1.35;0.60;;;;;;;12.61;75.19;100658.56;6160629;23;20009;-76
2022/06/06 02:58:46;;;;;;;1.50;0.50;;;;;;;12.56;75.22;100658.63;6110655;23;20528;-76
2022/06/06 03:01:12;;;;;;;2.80;0.65;;;;;;;12.53;75.48;100653.69;6110325;23;20014;-76
2022/06/06 03:03:38;;;;;;;0.88;0.60;;;;;;;12.50;75.09;100659.84;6161102;23;20071;-76
2022/06/06 03:06:21;;;;;;;3.40;0.65;;;;;;;12.47;75.45;100661.28;6159350;23;20009;-76
2022/06/06 03:08:57;;;;;;;1.65;0.75;;;;;;;12.45;75.31;100662.72;6110122;23;20009;-76
2022/06/06 03:11:35;;;;;;;2.95;0.90;;;;;;;12.44;75.23;100666.66;6111658;23;20360;-76
2022/06/06 03:14:25;;;;;;;1.23;0.60;;;;;;;12.41;75.25;100670.88;6160586;23;20013;-76
2022/06/06 03:23:08;;;;;;;1.85;0.70;;;;;;;12.33;75.50;100665.16;6160582;23;20013;-76
2022/06/06 03:25:46;;;;;;;1.50;0.70;;;;;;;12.32;75.42;100671.88;6160735;23;20320;-76
2022/06/06 03:28:39;;;;;;;1.55;0.98;;;;;;;12.24;75.61;100676.97;6110094;23;20010;-76
2022/06/06 03:31:08;;;;;;;2.30;0.60;;;;;;;12.21;75.68;100672.00;6160241;23;20018;-76
2022/06/06 03:34:12;;;;;;;3.15;0.65;;;;;;;12.19;75.83;100663.13;6110412;23;20129;-76
2022/06/06 03:36:55;;;;;;;0.82;0.60;;;;;;;12.16;75.64;100672.06;6069671;23;20341;-76
2022/06/06 03:39:30;;;;;;;1.95;0.63;;;;;;;12.13;75.86;100681.03;6047758;23;20017;-76
2022/06/06 03:42:09;;;;;;;2.13;0.75;;;;;;;12.10;76.05;100667.72;6046125;23;20017;-76
2022/06/06 03:44:47;;;;;;;1.50;0.70;;;;;;;12.09;76.10;100663.28;6022816;23;20018;-77
2022/06/06 03:47:21;;;;;;;1.73;0.63;;;;;;;12.06;75.88;100661.94;6022626;23;20010;-76
2022/06/06 03:49:53;;;;;;;0.77;0.60;;;;;;;12.06;76.07;100661.94;6069766;23;20041;-76
2022/06/06 03:52:33;;;;;;;2.55;0.68;;;;;;;12.03;76.36;100659.72;6045928;23;20010;-76
2022/06/06 03:55:11;;;;;;;1.17;0.60;;;;;;;11.98;76.53;100665.38;6023739;23;20043;-76
2022/06/06 03:57:36;;;;;;;0.68;0.60;;;;;;;11.97;76.29;100668.47;6022977;23;20737;-76
2022/06/06 04:00:07;;;;;;;1.23;0.70;;;;;;;11.95;76.48;100667.91;6045561;23;20014;-76
2022/06/06 04:02:34;;;;;;;3.80;0.77;;;;;;;11.90;76.60;100668.84;6045656;23;20014;-76
2022/06/06 04:05:01;;;;;;;1.83;0.80;;;;;;;11.95;76.55;100666.00;6022077;23;20333;-76
2022/06/06 04:07:26;;;;;;;1.50;0.70;;;;;;;11.89;76.55;100667.16;6057189;23;20446;-76
2022/06/06 04:09:52;;;;;;;2.35;0.60;;;;;;;11.87;76.56;100669.44;6134166;23;20091;-76
2022/06/06 04:12:36;;;;;;;1.45;0.70;;;;;;;11.83;77.10;100663.59;6109846;23;20001;-75
2022/06/06 04:15:28;;;;;;;2.03;0.90;;;;;;;11.84;76.90;100670.81;6133704;23;20056;-76
2022/06/06 04:18:03;;;;;;;1.65;0.70;;;;;;;11.82;76.79;100663.91;6160405;23;20037;-76
2022/06/06 04:20:35;;;;;;;1.38;0.80;;;;;;;11.81;77.10;100671.44;6134405;23;20458;-76
2022/06/06 04:23:06;;;;;;;2.50;0.70;;;;;;;11.82;77.43;100666.69;6110325;23;20005;-76
2022/06/06 04:25:43;;;;;;;2.08;0.52;;;;;;;11.85;77.23;100671.66;6183246;23;20506;-76
2022/06/06 04:28:23;;;;;;;2.10;0.70;;;;;;;11.84;77.49;100662.47;6160226;23;20035;-76
2022/06/06 04:31:15;;;;;;;2.40;0.73;;;;;;;11.88;77.80;100670.25;6080345;23;20014;-76
2022/06/06 04:33:55;;;;;;;1.30;0.60;;;;;;;11.89;78.05;100669.94;6104726;23;20006;-76
2022/06/06 04:36:38;;;;;;;2.13;0.77;;;;;;;11.96;77.99;100672.38;6080240;23;20108;-76
2022/06/06 04:39:11;;;;;;;3.90;0.88;;;;;;;11.99;78.66;100666.22;6130597;23;20015;-76
2022/06/06 04:41:40;;;;;;;2.30;0.60;;;;;;;12.07;79.40;100679.47;6081484;23;20037;-76
2022/06/06 04:44:17;;;;;;;4.13;0.70;;;;;;;12.17;80.38;100676.50;6104552;23;20013;-76
2022/06/06 04:46:59;;;;;;;1.45;0.82;;;;;;;12.22;82.73;100673.66;6081613;23;20013;-76
2022/06/06 04:49:28;;;;;;;3.05;0.90;;;;;;;12.34;82.03;100675.16;6130173;23;20495;-76
2022/06/06 04:51:54;;;;;;;4.13;0.90;;;;;;;12.42;82.96;100669.72;6080520;23;20396;-76
2022/06/06 04:54:21;;;;;;;5.45;0.68;;;;;;;12.54;83.86;100669.28;6056511;23;20016;-76
2022/06/06 04:56:47;;;;;;;1.48;0.80;;;;;;;12.66;91.46;100675.19;6104841;23;20014;-76
2022/06/06 04:59:12;;;;;;;3.65;1.13;;;;;;;12.79;91.14;100667.19;6080072;23;20014;-76
2022/06/06 05:01:38;;;;;;;3.03;0.90;;;;;;;12.90;88.16;100661.13;6080625;23;20014;-76
2022/06/06 05:04:04;;;;;;;2.80;0.70;;;;;;;13.04;88.31;100666.75;6080219;23;20085;-76
2022/06/06 05:06:32;;;;;;;4.32;0.95;;;;;;;13.18;84.65;100664.81;6130094;23;20006;-76
2022/06/06 05:09:23;;;;;;;1.88;0.80;;;;;;;13.37;83.40;100672.28;6130564;23;20028;-76
2022/06/06 05:12:24;;;;;;;2.80;0.80;;;;;;;13.52;82.24;100660.81;6103954;23;20014;-76
2022/06/06 05:15:04;;;;;;;0.88;0.55;;;;;;;13.72;80.74;100669.91;6056314;23;20010;-76
2022/06/06 05:17:37;;;;;;;2.53;0.60;;;;;;;13.87;79.95;100664.00;6130037;23;20093;-76
2022/06/06 05:20:19;;;;;;;1.40;0.60;;;;;;;14.07;77.83;100659.94;6056404;23;20037;-76
2022/06/06 05:23:03;;;;;;;3.20;0.60;;;;;;;14.25;76.67;100660.91;6056445;23;20033;-77
2022/06/06 05:25:47;;;;;;;3.55;0.80;;;;;;;14.46;75.82;100659.28;6129973;23;20407;-76
2022/06/06 05:28:20;;;;;;;2.20;0.70;;;;;;;14.65;74.84;100661.09;6104483;23;20012;-76
2022/06/06 05:30:53;;;;;;;2.08;0.50;;;;;;;14.85;74.39;100660.59;6104354;23;20013;-76
2022/06/06 05:33:36;;;;;;;3.45;0.80;;;;;;;15.07;73.63;100667.28;6104328;23;20331;-77
2022/06/06 05:36:02;;;;;;;3.58;0.77;;;;;;;15.27;72.95;100655.56;6080721;23;20034;-77
2022/06/06 05:38:48;;;;;;;2.47;0.90;;;;;;;15.46;72.89;100658.09;6129978;23;20014;-76
2022/06/06 05:41:43;;;;;;;5.72;0.75;;;;;;;15.67;72.44;100654.72;6129819;23;20022;-77
2022/06/06 05:44:16;;;;;;;1.15;0.60;;;;;;;15.89;71.35;100660.22;6103690;23;20017;-77
2022/06/06 05:47:19;;;;;;;1.88;0.50;;;;;;;16.07;70.81;100655.47;6080112;23;20002;-77
2022/06/06 05:49:50;;;;;;;4.82;0.70;;;;;;;16.23;70.54;100650.22;6129477;23;20420;-77
2022/06/06 05:52:57;;;;;;;3.55;0.60;;;;;;;16.40;70.70;100649.41;6103840;23;20006;-77
2022/06/06 05:55:39;;;;;;;2.25;0.60;;;;;;;16.54;69.64;100652.84;6104855;23;20010;-77
2022/06/06 05:58:51;;;;;;;1.88;0.63;;;;;;;16.65;69.19;100648.56;6105799;23;20017;-77
2022/06/06 06:01:52;;;;;;;1.95;0.70;;;;;;;16.78;69.17;100648.75;5995064;23;20016;-77
2022/06/06 06:04:43;;;;;;;3.22;0.70;;;;;;;16.89;68.67;100652.84;5988124;23;20666;-77
2022/06/06 06:07:21;;;;;;;3.85;0.80;;;;;;;16.97;70.21;100655.63;5991828;23;20011;-77
2022/06/06 06:10:15;;;;;;;1.40;0.60;;;;;;;17.05;68.63;100651.16;5988312;23;20442;-76
2022/06/06 06:12:44;;;;;;;3.63;0.70;;;;;;;17.19;67.57;100663.00;5990796;23;20014;-77
2022/06/06 06:15:15;;;;;;;3.28;0.77;;;;;;;17.33;67.37;100657.16;6011211;23;20016;-77
2022/06/06 06:17:40;;;;;;;1.25;0.70;;;;;;;17.49;67.20;100659.41;5988105;23;20017;-77
2022/06/06 06:20:11;;;;;;;3.70;0.70;;;;;;;17.67;67.41;100657.34;5964655;23;20022;-77
2022/06/06 06:22:40;;;;;;;4.43;0.68;;;;;;;17.83;67.04;100658.47;5942117;23;20015;-71
2022/06/06 06:25:08;;;;;;;3.10;0.70;;;;;;;18.01;66.37;100664.78;6011604;23;20483;-71
2022/06/06 06:27:34;;;;;;;3.42;0.68;;;;;;;18.20;65.77;100661.50;6011624;23;20052;-72
2022/06/06 06:30:00;;;;;;;4.25;0.75;;;;;;;18.41;65.40;100667.94;6031483;23;20074;-71
2022/06/06 06:32:28;;;;;;;4.25;0.80;;;;;;;18.56;66.11;100666.50;6069183;23;20483;-71
2022/06/06 06:34:59;;;;;;;1.27;0.68;;;;;;;18.78;64.33;100664.50;6158681;23;20017;-71
2022/06/06 06:37:43;;;;;;;2.78;0.70;;;;;;;18.95;64.48;100667.97;6109215;23;20045;-71
2022/06/06 06:40:17;;;;;;;2.53;1.00;;;;;;;19.13;63.74;100667.78;6132723;23;20005;-71
2022/06/06 06:42:52;;;;;;;4.10;0.95;;;;;;;19.34;63.58;100674.19;6159092;23;20032;-71
2022/06/06 06:45:28;;;;;;;1.58;0.70;;;;;;;19.54;62.64;100669.63;6132681;23;20006;-71
2022/06/06 06:48:03;;;;;;;5.60;1.00;;;;;;;19.64;62.93;100671.97;6108192;23;20014;-71
2022/06/06 06:50:31;;;;;;;2.92;0.60;;;;;;;19.76;62.52;100676.81;6158891;23;20005;-71
2022/06/06 06:53:24;;;;;;;2.20;0.70;;;;;;;19.95;61.88;100678.22;6132705;23;20013;-71
2022/06/06 06:56:17;;;;;;;1.45;0.82;;;;;;;20.12;61.65;100683.59;6112154;23;20025;-72
2022/06/06 06:58:52;;;;;;;4.57;0.63;;;;;;;20.27;61.18;100685.69;6132908;23;20005;-72
2022/06/06 07:01:38;;;;;;;4.38;0.80;;;;;;;20.42;61.43;100683.28;6132175;23;20009;-71
2022/06/06 07:09:54;;;;;;;2.53;0.70;;;;;;;20.88;60.17;100681.06;6136718;23;20009;-72
2022/06/06 07:12:46;;;;;;;3.45;0.70;;;;;;;21.05;59.68;100692.03;6132817;23;20363;-71
2022/06/06 07:15:20;;;;;;;4.15;0.70;;;;;;;21.18;60.50;100684.31;6136550;23;20013;-71
2022/06/06 07:17:49;;;;;;;3.85;0.60;;;;;;;21.30;60.06;100674.94;6108533;23;20169;-71
2022/06/06 07:20:15;;;;;;;2.10;0.55;;;;;;;21.46;59.06;100684.28;6108687;23;20009;-72
2022/06/06 07:23:11;;;;;;;4.55;0.70;;;;;;;21.64;58.60;100685.53;6108729;23;20080;-72
2022/06/06 07:25:54;;;;;;;2.55;0.52;;;;;;;21.83;58.04;100686.81;6120631;23;20044;-71
2022/06/06 07:28:22;;;;;;;5.25;0.80;;;;;;;21.95;57.71;100681.03;6060333;23;20008;-72
2022/06/06 07:31:09;;;;;;;3.13;0.50;;;;;;;22.16;57.30;100677.91;6133121;23;20001;-71
2022/06/06 07:34:01;;;;;;;4.63;0.57;;;;;;;22.28;57.09;100677.00;6132710;23;20025;-71
2022/06/06 07:36:45;;;;;;;1.90;0.50;;;;;;;22.47;56.21;100677.00;6135814;23;20013;-72
2022/06/06 07:39:35;;;;;;;2.10;0.52;;;;;;;22.62;56.71;100674.50;6182517;23;20009;-71
2022/06/06 07:42:24;;;;;;;4.63;0.63;;;;;;;22.75;55.40;100676.78;6160183;23;20010;-71
2022/06/06 07:45:01;;;;;;;4.63;0.60;;;;;;;22.85;55.56;100674.56;6085191;23;20017;-70
2022/06/06 07:47:29;;;;;;;7.97;0.65;;;;;;;22.92;55.13;100674.69;6110829;23;20339;-70
2022/06/06 07:50:03;;;;;;;5.95;0.70;;;;;;;23.00;54.17;100670.03;6134103;23;20010;-70
2022/06/06 07:52:41;;;;;;;3.85;0.70;;;;;;;23.01;55.11;100666.00;6110032;23;19998;-69
2022/06/06 07:55:31;;;;;;;4.95;0.60;;;;;;;23.09;55.21;100665.75;6160437;23;20089;-70
2022/06/06 07:58:14;;;;;;;4.15;0.60;;;;;;;23.10;54.04;100667.41;6134561;23;20052;-69
2022/06/06 08:00:40;;;;;;;;;;;;;;;23.18;53.98;100668.38;6134581;23;20010;-69
2022/06/06 08:03:13;;;;;;;1.95;0.50;;;;;;;23.19;54.13;100676.47;6134309;23;19987;-69
2022/06/06 08:05:44;;;;;;;3.50;0.50;;;;;;;23.17;53.85;100666.72;6110903;23;20060;-69
2022/06/06 08:08:38;;;;;;;4.70;0.63;;;;;;;23.15;52.71;100660.59;6160384;23;20009;-69
2022/06/06 08:11:09;;;;;;;5.93;0.60;;;;;;;23.16;53.44;100646.06;6134192;23;20316;-69
2022/06/06 08:13:55;;;;;;;3.97;0.68;;;;;;;23.13;52.32;100652.50;6110835;23;20057;-69
2022/06/06 08:16:33;;;;;;;5.57;0.50;;;;;;;23.29;53.38;100660.03;6110354;23;20013;-69
2022/06/06 08:19:30;;;;;;;5.97;0.60;;;;;;;23.38;53.53;100646.47;6134047;23;20009;-71
2022/06/06 08:21:56;;;;;;;4.32;0.50;;;;;;;23.54;52.21;100651.97;6109692;23;20407;-71
2022/06/06 08:24:28;;;;;;;4.50;0.57;;;;;;;23.62;51.77;100648.91;6109795;23;20013;-71
2022/06/06 08:26:54;;;;;;;4.35;0.60;;;;;;;23.82;52.43;100640.31;6134167;23;20012;-71
2022/06/06 08:29:20;;;;;;;1.60;0.30;;;;;;;23.98;51.83;100631.66;6159669;23;20017;-70
2022/06/06 08:31:45;;;;;;;5.53;0.90;;;;;;;24.14;50.47;100637.97;6160037;23;20006;-71
2022/06/06 08:34:12;;;;;;;3.30;0.43;;;;;;;24.34;50.20;100624.47;6160343;23;20014;-71
2022/06/06 08:36:59;;;;;;;4.20;0.60;;;;;;;24.50;50.45;100636.47;6134093;23;20018;-71
2022/06/06 08:39:42;;;;;;;4.72;0.50;;;;;;;24.62;50.22;100640.25;6160125;23;20331;-71
2022/06/06 08:42:39;;;;;;;3.55;0.60;;;;;;;24.67;48.97;100637.88;6133829;23;20010;-70
2022/06/06 08:45:22;;;;;;;2.78;0.63;;;;;;;24.77;49.21;100641.22;6133734;23;20013;-72
2022/06/06 08:48:15;;;;;;;6.25;0.90;;;;;;;24.90;48.65;100639.75;6160151;23;20013;-73
2022/06/06 08:50:46;;;;;;;7.10;0.75;;;;;;;25.02;47.28;100628.16;6159839;23;20005;-71
2022/06/06 08:53:33;;;;;;;8.02;0.95;;;;;;;25.21;47.98;100640.53;6133700;23;20343;-73
2022/06/06 08:56:18;;;;;;;5.00;0.63;;;;;;;25.35;45.88;100644.34;6159943;23;20041;-74
2022/06/06 08:58:50;;;;;;;4.53;0.50;;;;;;;25.54;45.36;100640.41;6134146;23;20005;-73
2022/06/06 09:01:30;;;;;;;;;;;;;;;25.67;46.21;100642.97;6160131;23;20002;-74
2022/06/06 09:04:33;;;;;;;5.07;0.68;;;;;;;25.78;45.68;100636.16;6109291;23;19904;-74
2022/06/06 09:07:17;;;;;;;;;;;;;;;25.95;46.07;100637.53;6160479;23;20010;-73
2022/06/06 09:10:13;;;;;;;2.50;0.50;;;;;;;26.07;44.95;100642.06;6159953;23;20307;-74
2022/06/06 09:13:07;;;;;;;1.77;0.50;;;;;;;26.18;44.29;100634.41;6159750;23;20012;-74
2022/06/06 09:15:57;;;;;;;2.65;0.80;;;;;;;26.25;44.23;100627.94;6159424;23;20009;-73
2022/06/06 09:18:34;;;;;;;3.67;0.65;;;;;;;26.33;43.44;100628.78;6108923;23;20001;-74
2022/06/06 09:21:38;;;;;;;3.28;0.50;;;;;;;26.38;42.20;100634.91;6159612;23;20016;-74
2022/06/06 09:24:06;;;;;;;;;;;;;;;26.42;42.48;100638.59;6160143;23;20344;-75
2022/06/06 09:26:52;;;;;;;1.67;0.45;;;;;;;26.42;42.72;100629.25;6159735;23;19954;-74
2022/06/06 09:29:51;;;;;;;2.03;0.50;;;;;;;26.34;42.79;100624.75;6103639;23;20021;-75
2022/06/06 09:32:51;;;;;;;1.45;0.40;;;;;;;26.35;43.51;100629.22;6150689;23;20009;-75
2022/06/06 09:35:22;;;;;;;4.38;0.60;;;;;;;26.37;42.53;100636.13;6130451;23;20014;-75
2022/06/06 09:37:59;;;;;;;4.10;0.70;;;;;;;26.41;42.25;100634.13;6153279;23;20021;-75
2022/06/06 09:40:49;;;;;;;2.30;0.55;;;;;;;26.50;43.07;100628.06;6129821;23;20503;-75
2022/06/06 09:43:21;;;;;;;3.10;0.70;;;;;;;26.65;43.56;100620.41;6130044;23;20493;-75
2022/06/06 09:46:05;;;;;;;4.13;0.60;;;;;;;26.79;41.39;100628.19;6129793;23;20009;-75
2022/06/06 09:48:59;;;;;;;3.88;0.70;;;;;;;26.88;40.83;100626.59;6128432;23;20025;-74
2022/06/06 09:51:36;;;;;;;3.63;0.50;;;;;;;26.93;40.08;100622.53;6129651;23;20006;-73
2022/06/06 10:00:18;;;;;;;7.43;1.00;;;;;;;26.58;42.81;100617.53;6129471;23;20012;-68
2022/06/06 10:03:17;;;;;;;3.88;0.70;;;;;;;26.46;42.85;100624.38;6128278;23;20040;-67
2022/06/06 10:06:01;;;;;;;8.23;1.08;;;;;;;26.36;43.95;100628.81;6129344;23;20097;-67
2022/06/06 10:09:08;;;;;;;17.05;1.50;;;;;;;26.23;44.21;100622.66;6128329;23;20483;-67
2022/06/06 10:12:07;;;;;;;13.05;0.90;;;;;;;26.11;44.21;100630.72;6128393;23;20454;-67
2022/06/06 10:15:00;;;;;;;13.05;0.98;;;;;;;26.03;43.84;100624.97;6102578;23;20005;-68
2022/06/06 10:17:29;;;;;;;3.95;0.50;;;;;;;26.03;42.64;100632.69;6128114;23;20034;-68
2022/06/06 10:20:02;;;;;;;6.32;0.60;;;;;;;26.13;42.03;100628.28;6129370;23;20609;-68
2022/06/06 10:22:43;;;;;;;1.42;0.32;;;;;;;26.27;42.53;100619.81;6126953;23;20478;-68
2022/06/06 10:25:15;;;;;;;3.10;0.50;;;;;;;26.36;43.04;100628.81;6128289;23;20360;-68
2022/06/06 10:27:48;;;;;;;3.58;0.50;;;;;;;26.45;42.45;100619.91;6128077;23;20017;-69
2022/06/06 10:30:20;;;;;;;3.45;0.40;;;;;;;26.53;42.44;100621.59;6177410;23;20026;-69
2022/06/06 10:33:06;;;;;;;;;;;;;;;26.59;41.37;100616.34;6153058;23;20018;-68
2022/06/06 10:36:04;;;;;;;0.80;0.30;;;;;;;26.68;40.42;100613.91;6128087;23;19920;-67
2022/06/06 10:39:02;;;;;;;4.45;0.80;;;;;;;26.74;40.73;100616.00;6103225;23;20010;-67
2022/06/06 10:41:52;;;;;;;2.38;0.55;;;;;;;26.77;40.84;100620.03;6148744;23;20010;-68
2022/06/06 10:44:30;;;;;;;1.95;0.40;;;;;;;26.85;41.41;100618.03;6127674;23;20016;-68
2022/06/06 10:47:16;;;;;;;3.55;0.40;;;;;;;26.89;41.18;100611.13;6152042;23;20009;-68
2022/06/06 10:49:52;;;;;;;2.38;0.47;;;;;;;26.85;40.74;100609.50;6127922;23;20021;-68
2022/06/06 10:52:18;;;;;;;2.40;0.45;;;;;;;26.94;40.54;100612.75;6101825;23;20452;-68
2022/06/06 10:55:22;;;;;;;4.03;0.55;;;;;;;27.03;41.18;100604.66;6128036;23;20014;-68
2022/06/06 10:58:07;;;;;;;2.00;0.60;;;;;;;27.13;40.28;100606.69;6127490;23;20387;-68
2022/06/06 11:01:13;;;;;;;3.08;0.38;;;;;;;27.20;40.42;100608.78;6122074;23;20457;-68
2022/06/06 11:04:06;;;;;;;3.35;0.70;;;;;;;27.28;40.21;100599.00;6176647;23;20014;-68
2022/06/06 11:06:37;;;;;;;1.48;0.40;;;;;;;27.39;39.75;100594.13;6177044;23;20006;-68
2022/06/06 11:09:41;;;;;;;2.08;0.43;;;;;;;27.45;39.75;100596.56;6127881;23;20364;-68
2022/06/06 11:12:35;;;;;;;1.27;0.40;;;;;;;27.51;39.43;100597.78;6152678;23;20060;-68
2022/06/06 11:15:01;;;;;;;3.33;0.70;;;;;;;27.57;40.69;100604.72;6129237;23;20006;-68
2022/06/06 11:17:50;;;;;;;3.72;0.68;;;;;;;27.51;39.57;100598.59;6154319;23;20415;-68
2022/06/06 11:20:34;;;;;;;2.50;0.50;;;;;;;27.48;39.19;100601.47;6174486;23;20064;-68
2022/06/06 11:23:18;;;;;;;5.28;0.52;;;;;;;27.46;39.08;100603.91;6130930;23;20017;-68
2022/06/06 11:26:13;;;;;;;3.53;0.40;;;;;;;27.43;38.96;100605.53;6131607;23;20002;-68
2022/06/06 11:28:58;;;;;;;2.72;0.60;;;;;;;27.35;39.05;100601.03;6183698;23;20028;-68
2022/06/06 11:31:41;;;;;;;2.13;0.35;;;;;;;27.32;39.42;100599.81;6160744;23;20188;-68
2022/06/06 11:34:24;;;;;;;1.15;0.40;;;;;;;27.38;39.78;100589.63;6112480;23;20506;-68
2022/06/06 11:36:50;;;;;;;1.05;0.40;;;;;;;27.46;40.00;100586.78;6160703;23;20495;-68
2022/06/06 11:39:29;;;;;;;1.65;0.43;;;;;;;27.51;39.66;100581.47;6161128;23;20014;-68
2022/06/06 11:41:58;;;;;;;1.17;0.28;;;;;;;27.54;38.94;100582.72;6135518;23;20018;-68
2022/06/06 11:44:26;;;;;;;2.17;0.40;;;;;;;27.60;38.84;100586.78;6134185;23;20017;-68
2022/06/06 11:47:01;;;;;;;4.65;0.47;;;;;;;27.62;38.57;100578.63;6109486;23;20009;-68
2022/06/06 11:49:35;;;;;;;2.20;0.40;;;;;;;27.62;38.97;100576.59;6109852;23;20090;-68
2022/06/06 11:52:04;;;;;;;2.58;0.30;;;;;;;27.70;39.83;100580.25;6134420;23;20364;-68
2022/06/06 11:54:41;;;;;;;2.47;0.60;;;;;;;27.70;40.07;100585.16;6134410;23;20047;-68
2022/06/06 11:57:27;;;;;;;2.47;0.50;;;;;;;27.75;39.85;100576.16;6160521;23;20027;-68
2022/06/06 12:00:11;;;;;;;3.67;0.60;;;;;;;27.75;39.54;100584.69;6159631;23;20005;-68
2022/06/06 12:03:10;;;;;;;0.57;0.40;;;;;;;27.82;39.06;100567.63;6110335;23;20021;-68
2022/06/06 12:06:01;;;;;;;2.67;0.50;;;;;;;27.89;39.11;100583.91;6133827;23;20013;-68
2022/06/06 12:08:30;;;;;;;2.70;0.45;;;;;;;27.98;38.99;100592.88;6138015;23;20041;-68
2022/06/06 12:11:20;;;;;;;3.20;0.40;;;;;;;28.05;38.64;100579.41;6134234;23;20039;-68
2022/06/06 12:14:03;;;;;;;3.53;0.40;;;;;;;28.16;38.32;100567.91;6159917;23;20021;-68
2022/06/06 12:16:31;;;;;;;1.52;0.40;;;;;;;28.31;39.22;100573.59;6135286;23;20513;-68
2022/06/06 12:19:17;;;;;;;1.63;0.40;;;;;;;28.45;38.97;100573.56;6110297;23;20382;-68
2022/06/06 12:21:54;;;;;;;3.22;0.43;;;;;;;28.62;38.35;100568.97;6111851;23;20012;-68
2022/06/06 12:24:39;;;;;;;3.50;0.50;;;;;;;28.79;37.16;100570.91;6160240;23;20062;-68
2022/06/06 12:27:26;;;;;;;2.08;0.30;;;;;;;28.89;37.10;100560.63;6135384;23;20375;-68
2022/06/06 12:30:06;;;;;;;3.88;0.40;;;;;;;29.05;36.72;100566.66;6133379;23;20017;-68
2022/06/06 12:32:41;;;;;;;2.45;0.40;;;;;;;29.08;36.42;100565.03;6134184;23;20009;-68
2022/06/06 12:35:27;;;;;;;1.70;0.43;;;;;;;29.03;35.97;100563.44;6160377;23;20101;-68
2022/06/06 12:38:08;;;;;;;2.13;0.45;;;;;;;28.99;36.61;100565.47;6135264;23;20379;-68